LiveATC.Net - Listen to live air traffic control over the Internet!


ICAO: KLNA  IATA: LNA   Airport: Palm Beach County Park Airport
City: West Palm Beach   State/Province: Florida
Country: United States   Continent: North America
KPBI METAR Weather: KPBI 060853Z 18003KT 10SM SCT024 SCT055 SCT250 26/24 A3001 RMK AO2 SLP163 T02610244 56007 $
KLNA Flight Activity (FlightAware)
KLNA Airport Info   (iFlightPlanner)
KLNA VFR Sectional Chart   (iFlightPlanner) 
KLNA IFR Low Altitude Chart   (iFlightPlanner) 
KLNA IFR High Altitude Chart   (iFlightPlanner) 

KLNA CTAF
Feed Status: DOWN
Last heard on: 2022-06-04 09:00:22 (32 days 0 hours 27 minutes ago)
Archive Access: KLNA CTAF
FacilityFrequency
Lantana CTAF122.700

NOTICE

Unauthorized use prohibited. See LiveATC.net Terms of Service


Airport/ARTCC Code
Frequency Search
(e.g., 124.400, 128.75)
Site-wide search
 


Browse Feeds
Top 50 Feeds
HF Oceanic Feeds
Coverage Map
Bad Weather Areas

LiveATC FAQ
Offer LiveATC feed
Contact LiveATC.net
Press Inquiries

LiveATC on iPhone
LiveATC on Android

LiveATC Mobile
(Mobile browser)

ATC Audio Archives
Interesting Recordings

LiveATC Forums


Home Page
About LiveATC.net


Terms of Use
Privacy Policy

AIRMETs/SIGMETs

FAA Airport Status
NAS Status
Arrival Demand


Server Software By:
Icecast.org
Liquidsoap